cliquez pour ajouter le site Runraid à vos favoris  English version (google)  Retour à l'accueil Ecrire à l'auteur du site Runraid : Michel Jourdan



Les prochaines courses


Les derniers résultats

cliquez pour visualiser la page complète relatant la chronologie des éruptions du Piton de la Fournaise
éruptions Piton de la Fournaise


Ile de La Réunion

 Diagonale des Fous 

Ecrire au créateur du site : Michel Jourdan
Contact


2017-12-01 - Kours Ti Bwa

Pour consulter le palmarès d'un coureur, un clic sur son nom !

Vous avez des remarques, corrections, ... sur ces résultats , un clic sur --> pour me transmettre toute information concernant les classements


Kours Ti Bwa - 2017 : classement des 177 finishers
Place Nom Temps Cat. Club Sexe Clt/cat.
Place Nom Temps Cat. Club Sexe Clt/cat.
1 PAYET Jean Patrice 00:51:06 V1M M 884
2 CUVELIER Leopold 00:56:39 SEM M 725
3 GEOFFROY Franck 00:57:23 V2M M 894
4 RICHARD Jean Yves 00:57:51 V2M M 862
5 SAULT Eddy 00:58:01 V2M M 801
6 FLORUS Jean Patrick 00:58:23 V1M M 867
7 MICHEL Patrice 00:58:35 V1M M 770
8 DAREL Luciano 00:58:56 SEM M 859
9 ODULES Stephane 00:59:16 SEM M 847
10 METRIDATE Jimmy 00:59:23 SEM M 851
11 LAURET Dany 00:59:29 V1M M 787
12 BAILLIF Sebastien 00:59:52 SEM M 835
13 MINATCHY Christopher 01:00:08 SEM M 878
14 POBREZO Henri Claude 01:00:14 SEM M 840
15 BAPTISTE Joackim 01:00:44 SEM M 870
16 DALEVAN Jean Eric 01:00:45 V2M M 881
17 TECHER Moise 01:02:16 SEM M 843
18 HOARAU Jean Yves 01:02:26 V1M M 880
19 VEFOUR Stephane 01:02:28 SEM M 853
20 CALODAT Patrick 01:02:43 SEM M 841
21 LORION Jannick 01:03:24 V1M M 818
22 RECHICHOU Denis 01:03:37 CAM M 781
23 LORRAINE Sully 01:03:41 V1M M 890
24 REMY Guillaume 01:04:15 V1M M 799
25 FRADELIN Rene 01:04:47 V1M M 773
26 JACQUENET John 01:04:49 V1M M 887
27 CAZANOVE Thierry 01:04:53 SEM M 726
28 BARLIEU Ronan 01:05:39 SEM M 852
29 SOUBOU Richelet 01:05:47 V1M M 783
30 ACHELOUS Angelin Claude 01:05:52 V2M M 795
31 MOISSON Eric 01:05:57 V1M M 803
32 GRONDIN Didier 01:05:59 V1M M 741
33 ETOUARIA David 01:06:05 V1M M 751
34 CUVELIER Sebastien 01:06:17 SEM M 868
35 VIDOT Jean Francois 01:06:35 V1M M 848
36 ESPERANCE Fabrice 01:07:27 V2M M 888
37 NOE Florian 01:07:37 SEM M 893
38 HIBON Fatima 01:07:44 V1F F 1ere F 800
39 GEREONE Willy 01:07:46 SEM M 715
40 SERAPHIN Patrick 01:09:34 SEM M 820
41 LAMY Ludovic 01:09:36 SEM M 836
42 ANDRE Nicolas 01:09:58 SEM M 802
43 JULIENNE Richelet 01:10:22 V2M M 789
44 PERSEE Yolain 01:10:53 V1M M 785
45 MIOT Samuel 01:11:42 V1M M 860
46 HIBON Mathieu 01:12:28 SEM M 810
47 CONSTANTE Jimmy 01:12:31 V1M M 722
48 SOMNICA Alain 01:12:34 V2M M 780
49 ROUDIC Jonathan 01:13:09 SEM M 705
50 LAYEMAR Leonard 01:13:13 V3M M 774
51 ASSOUMANI Alexandre 01:13:43 V1F F 2 F 857
52 RIVIERE Idriss 01:13:47 V1M M 729
53 SIMON Yohann 01:13:50 V1M M 842
54 LON MON POY Eric 01:14:03 V1M M 794
55 BADOR Patrick 01:14:12 V1M M 755
56 BABEF Jean Alexandre 01:14:56 SEM M 879
57 LE Khanh 01:15:33 V1M M 764
58 ALEX Jonathan 01:15:39 SEM M 839
59 EMMA Corine 01:15:48 V1F F 3 F 723
60 FIVRIA Jimmy 01:16:26 V2M M 742
61 GROSSET David 01:17:11 V1M M 713
62 ORUS Franck 01:17:26 SEM M 756
63 BERILE Pascale 01:17:36 V1M M 704
64 VIRASSAMY Flore 01:17:37 V2F F 4 F 895
65 BEONEL Fabrice 01:17:56 V1M M 825
66 GARDENAT Jean Pierre 01:18:13 V2M M 796
67 GRIMAUD Emmanuel 01:19:04 V2M M 719
68 GIRON Sophie 01:19:06 V1F F 5 F 720
69 VARDAPIN Richemond 01:19:26 V1M M 813
70 AURE Patrick 01:19:45 V2M M 812
71 BOIS Fred 01:20:24 SEM M 826
72 RACINE Gilbert 01:20:26 V1M M 845
73 PERSEE Alix 01:20:41 SEM M 786
74 CONSTANTE Michel 01:21:14 V1M M 819
75 PERRINE Marie Odile 01:21:47 V2F F 900
76 LEBOT Michel 01:21:50 V3M M 763
77 LANGE Greg 01:21:53 ESM M 758
78 SAUTRON Jean Jacques 01:21:58 V2M M 709
79 DORESSAMY AMANY Michel 01:22:02 V2M M 768
80 GRONDIN Alexandre 01:22:25 ESM M 738
81 LE ROUX Vincent 01:22:52 SEM M 838
82 AUGUSTINE Jean Richel 01:22:56 SEM M 817
83 LAPIERRE Sylvie 01:22:59 SEF F 775
84 PAYET Jean Pierre 01:23:41 V2M M 877
85 CARRON Jean Francois 01:23:56 V2M M 744
86 ORUS Lina 01:24:23 SEF F 757
87 BASQUAISE Jean Philippe 01:24:38 V2M M 829
88 HOARAU Maurice 01:24:41 V2M M 778
89 VARAMATA Johnny 01:24:47 V2M M 772
90 BEONEL Renauld 01:24:51 V2M M 760
91 BERILE Cyril 01:24:55 V1M M 706
92 LABBE Raphael 01:24:59 SEM M 762
93 RECHICHOU Jean Wilfried 01:25:02 SEM M 782
94 WEBER Stephanie 01:25:09 V1F F 855
95 CLAIN Ulrick 01:25:15 V1M M 733
96 GUILLOUX Julien 01:25:19 SEM M 898
97 QUONIAM Celine 01:25:26 V2F F 743
98 CONSTANTE Marie Sylvie 01:25:46 V1F F 876
99 CONSTANTE Daniel 01:25:57 V1M M 875
100 QUONIAM Thierry 01:26:24 V1M M 811
101 LAU YAM Michel Espedit 01:26:35 V3M M 792
102 CLAIN Gerald 01:26:39 V1M M 734
103 GADENNE Jean 01:26:42 SEM M 891
104 MADIN Ruben 01:26:44 V3M M 712
105 OROSMANE Willy 01:26:56 V1M M 807
106 SOPHIE Edie Fred 01:27:48 V1M M 806
107 LEBOT Denise 01:27:54 V3F F 765
108 PAYET Jean Claude 01:28:43 SEM M 889
109 VARD Mathieu 01:29:26 SEM M 886
110 LIVAVATE Christophie 01:29:33 SEF F 746
111 SHAMP PING CHEE Carine 01:29:54 V1F F 776
112 TELEF Giovanny 01:30:09 SEM M 822
113 LAFOSSE Jerome 01:30:28 V1M M 777
114 PIERRE Emmanuel 01:30:31 SEM M 779
115 BAILLIF Elisabeth 01:30:34 V2F F 849
116 BULIN Noel 01:30:42 V2M M 707
117 SERAPHIN Giovanni 01:31:49 SEM M 830
118 HAMADA Ibrahim 01:32:03 SEM M 727
119 MOUROUGUIN POTIGAN Rajin 01:32:14 JUM M 844
120 MOUNIAMA MOUNICAN Patrick 01:32:18 V1M M 748
121 NOEL Sonia 01:33:07 V1F F 846
122 BARDET Jeremy 01:33:16 SEM M 793
123 PONGERARD SINGAINY Desire 01:34:03 V1M M 767
124 BOUVIER Louis 01:34:06 V2M M 821
125 BABEF Wilson 01:34:09 V2M M 750
126 DROMAT Lisa 01:35:11 SEF F 850
127 BALANCOURT Cedric 01:35:17 SEM M 882
128 BARBIER Florent 01:35:20 SEM M 883
129 GRONDIN J Pierre 01:35:23 V2M M 737
130 MAHADZERE Jean Thierry 01:35:34 V1M M 769
131 SALEZ Marion 01:36:16 SEF F 798
132 ANDOCHE Johanna 01:36:38 SEF F 700
133 LAGOURDE Nathalie 01:37:24 V1F F 784
134 CLAIN Jacques 01:37:40 V2M M 708
135 MANTES Georges Marie 01:37:46 V2M M 752
136 MILELLA Mathieu 01:37:57 SEM M 797
137 COUTAYE Marie Anne 01:38:01 V2F F 809
138 FLORICOURT Jean Pierre 01:38:11 V2M M 892
139 DELNAND Dominique 01:38:57 V2M M 897
140 HOARAU Coralie 01:39:00 SEF F 824
141 TRIVY Jean Marie 01:40:39 V2M M 753
142 GRONDIN Isnelle 01:40:46 V1F F 739
143 DIDIER Stephane 01:40:51 ESM M 864
144 NORMANT Remi 01:42:11 SEM M 724
145 DIDIER Brice 01:43:11 ESM M 874
146 ADRAS Urani 01:45:22 SEM M 754
147 PAROS Geraldo 01:47:52 SEM M 716
148 CLAIN Annick 01:48:01 V1F F 732
149 DELEDIQ Suzette 01:48:38 V2F F 899
150 LIBELLE Joelle 01:48:51 V2F F 701
151 RICAUD Jean Yves 01:49:37 V2M M 703
152 RICAUD Emmeline 01:51:25 SEF F 702
153 VIRAMA Laurence 01:51:35 SEF F 815
154 LORICOURT Nicolas 01:54:28 SEM M 805
155 BEDACHE Raissa 01:55:42 SEF F 858
156 MOUNIAMA MOUNICAN Jonathan 01:57:13 JUM M 747
157 LORICOURT Irenee 01:57:25 V3M M 791
158 OROSMANE Marie Magalie 01:59:07 V1F F 761
159 LANGE Valerie 01:59:17 V2F F 759
160 PAYET Franc Eric 02:00:27 V2M M 790
161 VERNET Jacques 02:00:32 V2M M 740
162 LAW THIME Liliane 02:00:47 V3F F 730
163 LAW THIME Jerome 02:00:51 SEM M 731
164 GRONDIN Marie Cindy 02:01:49 SEF F 736
165 VIRAMA Elodie 02:01:59 SEF F 814
166 REMPLAN Christelle 02:02:06 V1F F 808
167 MICHEL Marie Rose 02:02:10 V3F F 745
168 BABEF Catherine 02:05:13 V1F F 749
169 PEYROT Vanessa 02:06:11 SEF F 711
170 SETAMA Fabien 02:07:27 SEM M 710
171 MIRANVILLE Michelle 02:08:25 V1F F 766
172 VIRAMA Martine 02:11:11 SEF F 816
173 RIVIERE Marie Gladys 02:13:32 V1F F 728
174 VATEL Alida 02:19:07 V1F F 735
175 PETIAYE Prisca 02:29:26 SEM M 854
176 FARDEL Elodie 02:29:41 SEF F 717
177 FARDEL Jean Loup 02:29:48 V3M M 718


ReferencementCe site est listé dans la catégorie Sport : Sports extrêmes Dictionnaire
| Accueil | La Réunion  Vue du ciel | Météo | Cyclones | Volcan | Cirques de Mafate , Cilaos , Salazie | Photos Randonnées | Randonnées Réunion: Randos Espiègle , Courses montagne | Diagonale des Fous |  Marathon des Sables | Voyages Les stats du site | Fonds écran | Plan du site | Blog de runraid | Galerie photos Sport Réunion |